sensor_id;sensor_type;location;lat;lon;timestamp;pressure;altitude;pressure_sealevel;temperature;humidity
72409;BME280;60402;48.082;11.628;2024-01-27T00:01:43;96884.66;;;1.73;100.00
72409;BME280;60402;48.082;11.628;2024-01-27T00:04:29;96908.34;;;1.79;100.00
72409;BME280;60402;48.082;11.628;2024-01-27T00:07:15;96887.00;;;1.71;100.00
72409;BME280;60402;48.082;11.628;2024-01-27T00:10:02;96875.38;;;1.69;100.00
72409;BME280;60402;48.082;11.628;2024-01-27T00:12:47;96892.75;;;1.90;100.00
72409;BME280;60402;48.082;11.628;2024-01-27T00:15:33;96882.53;;;1.82;100.00
72409;BME280;60402;48.082;11.628;2024-01-27T00:18:19;96898.50;;;1.97;100.00
72409;BME280;60402;48.082;11.628;2024-01-27T00:21:06;96871.41;;;1.82;100.00
72409;BME280;60402;48.082;11.628;2024-01-27T00:23:51;96862.44;;;1.61;100.00
72409;BME280;60402;48.082;11.628;2024-01-27T00:26:37;96860.13;;;1.78;100.00
72409;BME280;60402;48.082;11.628;2024-01-27T00:29:23;96867.09;;;1.85;100.00
72409;BME280;60402;48.082;11.628;2024-01-27T00:32:08;96844.25;;;1.79;100.00
72409;BME280;60402;48.082;11.628;2024-01-27T00:34:54;96874.84;;;1.91;100.00
72409;BME280;60402;48.082;11.628;2024-01-27T00:37:40;96839.63;;;1.71;100.00
72409;BME280;60402;48.082;11.628;2024-01-27T00:40:26;96855.22;;;1.88;100.00
72409;BME280;60402;48.082;11.628;2024-01-27T00:43:11;96872.44;;;1.90;100.00
72409;BME280;60402;48.082;11.628;2024-01-27T00:45:57;96870.59;;;1.82;100.00
72409;BME280;60402;48.082;11.628;2024-01-27T00:48:43;96872.41;;;1.62;100.00
72409;BME280;60402;48.082;11.628;2024-01-27T00:51:28;96863.00;;;1.54;100.00
72409;BME280;60402;48.082;11.628;2024-01-27T00:54:14;96870.78;;;1.61;100.00
72409;BME280;60402;48.082;11.628;2024-01-27T00:57:00;96862.09;;;1.50;100.00
72409;BME280;60402;48.082;11.628;2024-01-27T00:59:45;96855.63;;;1.34;100.00
72409;BME280;60402;48.082;11.628;2024-01-27T01:02:31;96874.31;;;1.33;100.00
72409;BME280;60402;48.082;11.628;2024-01-27T01:05:17;96911.91;;;1.51;100.00
72409;BME280;60402;48.082;11.628;2024-01-27T01:08:03;96894.63;;;1.46;100.00
72409;BME280;60402;48.082;11.628;2024-01-27T01:10:48;96898.66;;;1.61;100.00
72409;BME280;60402;48.082;11.628;2024-01-27T01:13:34;96880.81;;;1.37;100.00
72409;BME280;60402;48.082;11.628;2024-01-27T01:16:20;96908.06;;;1.56;100.00
72409;BME280;60402;48.082;11.628;2024-01-27T01:19:05;96904.56;;;1.59;100.00
72409;BME280;60402;48.082;11.628;2024-01-27T01:21:51;96896.31;;;1.50;100.00
72409;BME280;60402;48.082;11.628;2024-01-27T01:24:37;96892.84;;;1.53;100.00
72409;BME280;60402;48.082;11.628;2024-01-27T01:27:22;96890.41;;;1.52;100.00
72409;BME280;60402;48.082;11.628;2024-01-27T01:30:08;96898.41;;;1.53;100.00
72409;BME280;60402;48.082;11.628;2024-01-27T01:32:54;96891.22;;;1.52;100.00
72409;BME280;60402;48.082;11.628;2024-01-27T01:35:40;96896.91;;;1.56;100.00
72409;BME280;60402;48.082;11.628;2024-01-27T01:38:26;96893.91;;;1.49;100.00
72409;BME280;60402;48.082;11.628;2024-01-27T01:41:11;96908.50;;;1.58;100.00
72409;BME280;60402;48.082;11.628;2024-01-27T01:43:57;96884.84;;;1.40;100.00
72409;BME280;60402;48.082;11.628;2024-01-27T01:46:43;96886.38;;;1.37;100.00
72409;BME280;60402;48.082;11.628;2024-01-27T01:49:28;96928.81;;;1.71;100.00
72409;BME280;60402;48.082;11.628;2024-01-27T01:52:14;96909.19;;;1.55;100.00
72409;BME280;60402;48.082;11.628;2024-01-27T01:55:05;96903.06;;;1.62;100.00
72409;BME280;60402;48.082;11.628;2024-01-27T01:57:51;96911.72;;;1.72;100.00
72409;BME280;60402;48.082;11.628;2024-01-27T02:00:37;96910.81;;;1.68;100.00
72409;BME280;60402;48.082;11.628;2024-01-27T02:03:23;96915.00;;;1.62;100.00
72409;BME280;60402;48.082;11.628;2024-01-27T02:06:08;96940.53;;;1.76;100.00
72409;BME280;60402;48.082;11.628;2024-01-27T02:08:54;96920.91;;;1.73;100.00
72409;BME280;60402;48.082;11.628;2024-01-27T02:11:40;96924.28;;;1.66;100.00
72409;BME280;60402;48.082;11.628;2024-01-27T02:14:26;96905.03;;;1.49;100.00
72409;BME280;60402;48.082;11.628;2024-01-27T02:17:12;96941.13;;;1.70;100.00
72409;BME280;60402;48.082;11.628;2024-01-27T02:19:58;96946.34;;;1.59;100.00
72409;BME280;60402;48.082;11.628;2024-01-27T02:22:46;96929.75;;;1.50;100.00
72409;BME280;60402;48.082;11.628;2024-01-27T02:25:31;96953.31;;;1.65;100.00
72409;BME280;60402;48.082;11.628;2024-01-27T02:28:17;96924.09;;;1.47;100.00
72409;BME280;60402;48.082;11.628;2024-01-27T02:31:03;96946.13;;;1.52;100.00
72409;BME280;60402;48.082;11.628;2024-01-27T02:33:49;96933.25;;;1.35;100.00
72409;BME280;60402;48.082;11.628;2024-01-27T02:36:34;96936.41;;;1.34;100.00
72409;BME280;60402;48.082;11.628;2024-01-27T02:39:20;96952.06;;;1.38;100.00
72409;BME280;60402;48.082;11.628;2024-01-27T02:42:06;96928.84;;;1.22;100.00
72409;BME280;60402;48.082;11.628;2024-01-27T02:44:52;96920.50;;;1.22;100.00
72409;BME280;60402;48.082;11.628;2024-01-27T02:47:38;96930.00;;;1.21;100.00
72409;BME280;60402;48.082;11.628;2024-01-27T02:50:24;96927.59;;;1.19;100.00
72409;BME280;60402;48.082;11.628;2024-01-27T02:53:09;96959.94;;;1.36;100.00
72409;BME280;60402;48.082;11.628;2024-01-27T02:55:55;96941.38;;;1.16;100.00
72409;BME280;60402;48.082;11.628;2024-01-27T02:58:41;96934.91;;;1.24;100.00
72409;BME280;60402;48.082;11.628;2024-01-27T03:01:26;96906.72;;;1.13;100.00
72409;BME280;60402;48.082;11.628;2024-01-27T03:04:12;96939.28;;;1.13;100.00
72409;BME280;60402;48.082;11.628;2024-01-27T03:06:58;96958.56;;;1.18;100.00
72409;BME280;60402;48.082;11.628;2024-01-27T03:09:43;96960.66;;;1.21;100.00
72409;BME280;60402;48.082;11.628;2024-01-27T03:12:29;96949.03;;;1.07;100.00
72409;BME280;60402;48.082;11.628;2024-01-27T03:15:14;96916.06;;;0.84;100.00
72409;BME280;60402;48.082;11.628;2024-01-27T03:18:00;96941.59;;;0.98;100.00
72409;BME280;60402;48.082;11.628;2024-01-27T03:20:46;96972.94;;;1.08;100.00
72409;BME280;60402;48.082;11.628;2024-01-27T03:23:31;96965.63;;;1.03;100.00
72409;BME280;60402;48.082;11.628;2024-01-27T03:26:17;96969.78;;;0.97;100.00
72409;BME280;60402;48.082;11.628;2024-01-27T03:29:03;96966.28;;;0.75;100.00
72409;BME280;60402;48.082;11.628;2024-01-27T03:31:48;96972.06;;;0.70;100.00
72409;BME280;60402;48.082;11.628;2024-01-27T03:34:34;96974.94;;;0.62;100.00
72409;BME280;60402;48.082;11.628;2024-01-27T03:37:22;96988.16;;;0.65;100.00
72409;BME280;60402;48.082;11.628;2024-01-27T03:40:08;97006.72;;;0.73;100.00
72409;BME280;60402;48.082;11.628;2024-01-27T03:42:54;96994.88;;;0.64;100.00
72409;BME280;60402;48.082;11.628;2024-01-27T03:45:40;96978.84;;;0.48;100.00
72409;BME280;60402;48.082;11.628;2024-01-27T03:48:26;97001.25;;;0.64;100.00
72409;BME280;60402;48.082;11.628;2024-01-27T03:51:11;97007.84;;;0.60;100.00
72409;BME280;60402;48.082;11.628;2024-01-27T03:53:57;97020.28;;;0.62;100.00
72409;BME280;60402;48.082;11.628;2024-01-27T03:56:43;97016.28;;;0.51;100.00
72409;BME280;60402;48.082;11.628;2024-01-27T03:59:29;97026.84;;;0.58;100.00
72409;BME280;60402;48.082;11.628;2024-01-27T04:02:14;97020.50;;;0.69;100.00
72409;BME280;60402;48.082;11.628;2024-01-27T04:05:00;97022.13;;;0.70;100.00
72409;BME280;60402;48.082;11.628;2024-01-27T04:07:46;97016.19;;;0.60;100.00
72409;BME280;60402;48.082;11.628;2024-01-27T04:10:31;96977.16;;;0.35;100.00
72409;BME280;60402;48.082;11.628;2024-01-27T04:13:17;97002.13;;;0.44;100.00
72409;BME280;60402;48.082;11.628;2024-01-27T04:16:03;97029.50;;;0.54;100.00
72409;BME280;60402;48.082;11.628;2024-01-27T04:18:49;97016.16;;;0.47;100.00
72409;BME280;60402;48.082;11.628;2024-01-27T04:21:34;97018.00;;;0.43;100.00
72409;BME280;60402;48.082;11.628;2024-01-27T04:24:20;97017.84;;;0.40;100.00
72409;BME280;60402;48.082;11.628;2024-01-27T04:27:06;97009.44;;;0.28;100.00
72409;BME280;60402;48.082;11.628;2024-01-27T04:29:52;97008.91;;;0.34;100.00
72409;BME280;60402;48.082;11.628;2024-01-27T04:32:37;97025.03;;;0.41;100.00
72409;BME280;60402;48.082;11.628;2024-01-27T04:35:23;97003.78;;;0.24;100.00
72409;BME280;60402;48.082;11.628;2024-01-27T04:38:09;97018.28;;;0.30;100.00
72409;BME280;60402;48.082;11.628;2024-01-27T04:40:55;97024.78;;;0.34;100.00
72409;BME280;60402;48.082;11.628;2024-01-27T04:43:40;97023.06;;;0.41;100.00
72409;BME280;60402;48.082;11.628;2024-01-27T04:46:26;97013.44;;;0.39;100.00
72409;BME280;60402;48.082;11.628;2024-01-27T04:49:12;97032.09;;;0.38;100.00
72409;BME280;60402;48.082;11.628;2024-01-27T04:51:57;96995.81;;;0.14;100.00
72409;BME280;60402;48.082;11.628;2024-01-27T04:54:43;97022.00;;;0.34;100.00
72409;BME280;60402;48.082;11.628;2024-01-27T04:57:29;97026.69;;;0.21;100.00
72409;BME280;60402;48.082;11.628;2024-01-27T05:00:15;97026.81;;;0.24;100.00
72409;BME280;60402;48.082;11.628;2024-01-27T05:03:00;97035.03;;;0.21;100.00
72409;BME280;60402;48.082;11.628;2024-01-27T05:05:49;97016.03;;;0.02;100.00
72409;BME280;60402;48.082;11.628;2024-01-27T05:08:35;97055.28;;;0.21;100.00
72409;BME280;60402;48.082;11.628;2024-01-27T05:11:31;97047.63;;;0.18;100.00
72409;BME280;60402;48.082;11.628;2024-01-27T05:14:17;97037.94;;;0.04;100.00
72409;BME280;60402;48.082;11.628;2024-01-27T05:17:03;97033.88;;;0.01;100.00
72409;BME280;60402;48.082;11.628;2024-01-27T05:19:51;97053.38;;;0.13;100.00
72409;BME280;60402;48.082;11.628;2024-01-27T05:22:37;97062.75;;;0.09;100.00
72409;BME280;60402;48.082;11.628;2024-01-27T05:25:23;97070.00;;;0.01;100.00
72409;BME280;60402;48.082;11.628;2024-01-27T05:28:08;97035.81;;;-0.20;100.00
72409;BME280;60402;48.082;11.628;2024-01-27T05:30:54;97041.75;;;-0.31;100.00
72409;BME280;60402;48.082;11.628;2024-01-27T05:33:40;97070.66;;;-0.23;100.00
72409;BME280;60402;48.082;11.628;2024-01-27T05:36:25;97076.00;;;-0.18;100.00
72409;BME280;60402;48.082;11.628;2024-01-27T05:39:11;97050.13;;;-0.39;100.00
72409;BME280;60402;48.082;11.628;2024-01-27T05:41:57;97084.59;;;-0.32;100.00
72409;BME280;60402;48.082;11.628;2024-01-27T05:44:43;97082.66;;;-0.40;100.00
72409;BME280;60402;48.082;11.628;2024-01-27T05:47:28;97080.91;;;-0.53;100.00
72409;BME280;60402;48.082;11.628;2024-01-27T05:50:14;97084.38;;;-0.56;100.00
72409;BME280;60402;48.082;11.628;2024-01-27T05:53:00;97080.09;;;-0.54;100.00
72409;BME280;60402;48.082;11.628;2024-01-27T05:55:46;97076.88;;;-0.64;100.00
72409;BME280;60402;48.082;11.628;2024-01-27T05:58:32;97087.16;;;-0.56;100.00
72409;BME280;60402;48.082;11.628;2024-01-27T06:01:18;97092.06;;;-0.62;100.00
72409;BME280;60402;48.082;11.628;2024-01-27T06:04:04;97092.06;;;-0.62;100.00
72409;BME280;60402;48.082;11.628;2024-01-27T06:06:50;97071.56;;;-0.78;100.00
72409;BME280;60402;48.082;11.628;2024-01-27T06:09:37;97112.97;;;-0.56;100.00
72409;BME280;60402;48.082;11.628;2024-01-27T06:12:23;97105.47;;;-0.64;100.00
72409;BME280;60402;48.082;11.628;2024-01-27T06:15:09;97106.66;;;-0.82;100.00
72409;BME280;60402;48.082;11.628;2024-01-27T06:17:55;97091.53;;;-0.93;100.00
72409;BME280;60402;48.082;11.628;2024-01-27T06:20:41;97103.91;;;-0.91;100.00
72409;BME280;60402;48.082;11.628;2024-01-27T06:23:27;97115.63;;;-0.85;100.00
72409;BME280;60402;48.082;11.628;2024-01-27T06:26:13;97103.09;;;-0.91;100.00
72409;BME280;60402;48.082;11.628;2024-01-27T06:28:59;97090.56;;;-1.06;100.00
72409;BME280;60402;48.082;11.628;2024-01-27T06:31:45;97121.53;;;-0.87;100.00
72409;BME280;60402;48.082;11.628;2024-01-27T06:34:32;97110.81;;;-1.06;100.00
72409;BME280;60402;48.082;11.628;2024-01-27T06:37:18;97097.91;;;-1.01;100.00
72409;BME280;60402;48.082;11.628;2024-01-27T06:40:04;97104.91;;;-1.04;100.00
72409;BME280;60402;48.082;11.628;2024-01-27T06:42:50;97139.69;;;-0.89;100.00
72409;BME280;60402;48.082;11.628;2024-01-27T06:45:36;97128.91;;;-0.99;100.00
72409;BME280;60402;48.082;11.628;2024-01-27T06:48:21;97128.22;;;-0.88;100.00
72409;BME280;60402;48.082;11.628;2024-01-27T06:51:07;97084.56;;;-1.08;100.00
72409;BME280;60402;48.082;11.628;2024-01-27T06:53:53;97115.69;;;-0.94;100.00
72409;BME280;60402;48.082;11.628;2024-01-27T06:56:38;97109.66;;;-1.05;100.00
72409;BME280;60402;48.082;11.628;2024-01-27T06:59:24;97123.84;;;-0.89;100.00
72409;BME280;60402;48.082;11.628;2024-01-27T07:02:10;97104.44;;;-0.97;100.00
72409;BME280;60402;48.082;11.628;2024-01-27T07:04:59;97140.28;;;-0.75;100.00
72409;BME280;60402;48.082;11.628;2024-01-27T07:07:45;97134.88;;;-0.80;100.00
72409;BME280;60402;48.082;11.628;2024-01-27T07:10:30;97131.00;;;-0.79;100.00
72409;BME280;60402;48.082;11.628;2024-01-27T07:13:16;97132.97;;;-0.80;100.00
72409;BME280;60402;48.082;11.628;2024-01-27T07:16:02;97132.78;;;-0.74;100.00
72409;BME280;60402;48.082;11.628;2024-01-27T07:18:47;97132.44;;;-0.73;100.00
72409;BME280;60402;48.082;11.628;2024-01-27T07:21:33;97127.84;;;-0.60;100.00
72409;BME280;60402;48.082;11.628;2024-01-27T07:24:19;97148.38;;;-0.53;100.00
72409;BME280;60402;48.082;11.628;2024-01-27T07:27:05;97154.50;;;-0.30;100.00
72409;BME280;60402;48.082;11.628;2024-01-27T07:29:51;97164.75;;;-0.21;100.00
72409;BME280;60402;48.082;11.628;2024-01-27T07:32:36;97129.69;;;-0.35;100.00
72409;BME280;60402;48.082;11.628;2024-01-27T07:35:22;97153.63;;;-0.13;100.00
72409;BME280;60402;48.082;11.628;2024-01-27T07:38:08;97123.06;;;-0.13;100.00
72409;BME280;60402;48.082;11.628;2024-01-27T07:40:54;97145.69;;;0.28;100.00
72409;BME280;60402;48.082;11.628;2024-01-27T07:43:39;97137.53;;;0.22;100.00
72409;BME280;60402;48.082;11.628;2024-01-27T07:46:25;97136.06;;;0.25;100.00
72409;BME280;60402;48.082;11.628;2024-01-27T07:49:10;97142.25;;;0.51;100.00
72409;BME280;60402;48.082;11.628;2024-01-27T07:51:58;97138.31;;;0.94;100.00
72409;BME280;60402;48.082;11.628;2024-01-27T07:54:44;97153.25;;;1.93;100.00
72409;BME280;60402;48.082;11.628;2024-01-27T07:57:29;97133.94;;;2.49;100.00
72409;BME280;60402;48.082;11.628;2024-01-27T08:00:15;97135.19;;;3.32;100.00
72409;BME280;60402;48.082;11.628;2024-01-27T08:03:01;97143.63;;;4.11;100.00
72409;BME280;60402;48.082;11.628;2024-01-27T08:05:46;97138.09;;;4.81;98.57
72409;BME280;60402;48.082;11.628;2024-01-27T08:08:32;97146.66;;;5.47;92.38
72409;BME280;60402;48.082;11.628;2024-01-27T08:11:18;97150.56;;;8.62;81.66
72409;BME280;60402;48.082;11.628;2024-01-27T08:14:03;97143.81;;;11.65;63.00
72409;BME280;60402;48.082;11.628;2024-01-27T08:16:49;97159.75;;;13.56;58.34
72409;BME280;60402;48.082;11.628;2024-01-27T08:19:35;97155.13;;;14.30;56.86
72409;BME280;60402;48.082;11.628;2024-01-27T08:22:21;97157.94;;;17.16;45.49
72409;BME280;60402;48.082;11.628;2024-01-27T08:25:06;97166.56;;;17.45;44.97
72409;BME280;60402;48.082;11.628;2024-01-27T08:27:52;97171.41;;;17.77;43.75
72409;BME280;60402;48.082;11.628;2024-01-27T08:30:38;97163.81;;;19.18;41.87
72409;BME280;60402;48.082;11.628;2024-01-27T08:33:24;97174.72;;;20.36;39.90
72409;BME280;60402;48.082;11.628;2024-01-27T08:36:15;97153.09;;;21.25;36.46
72409;BME280;60402;48.082;11.628;2024-01-27T08:39:01;97181.81;;;22.02;37.26
72409;BME280;60402;48.082;11.628;2024-01-27T08:41:47;97157.22;;;22.71;34.48
72409;BME280;60402;48.082;11.628;2024-01-27T08:44:32;97150.38;;;23.11;32.79
72409;BME280;60402;48.082;11.628;2024-01-27T08:47:18;97171.00;;;23.18;32.81
72409;BME280;60402;48.082;11.628;2024-01-27T08:50:04;97183.22;;;25.07;29.90
72409;BME280;60402;48.082;11.628;2024-01-27T08:52:50;97171.97;;;25.09;30.13
72409;BME280;60402;48.082;11.628;2024-01-27T08:55:36;97175.00;;;26.11;29.11
72409;BME280;60402;48.082;11.628;2024-01-27T08:58:22;97168.91;;;26.56;27.74
72409;BME280;60402;48.082;11.628;2024-01-27T09:01:07;97148.72;;;26.67;27.91
72409;BME280;60402;48.082;11.628;2024-01-27T09:03:55;97182.81;;;27.35;27.68
72409;BME280;60402;48.082;11.628;2024-01-27T09:06:40;97185.34;;;27.22;27.37
72409;BME280;60402;48.082;11.628;2024-01-27T09:09:26;97177.63;;;27.50;26.92
72409;BME280;60402;48.082;11.628;2024-01-27T09:12:12;97179.19;;;28.43;25.08
72409;BME280;60402;48.082;11.628;2024-01-27T09:14:57;97183.22;;;27.54;26.34
72409;BME280;60402;48.082;11.628;2024-01-27T09:17:43;97190.41;;;27.27;25.83
72409;BME280;60402;48.082;11.628;2024-01-27T09:20:29;97180.13;;;26.02;27.66
72409;BME280;60402;48.082;11.628;2024-01-27T09:23:14;97199.53;;;26.62;26.91
72409;BME280;60402;48.082;11.628;2024-01-27T09:26:01;97165.44;;;25.85;27.91
72409;BME280;60402;48.082;11.628;2024-01-27T09:28:46;97181.22;;;27.02;25.88
72409;BME280;60402;48.082;11.628;2024-01-27T09:31:39;97177.69;;;26.41;26.39
72409;BME280;60402;48.082;11.628;2024-01-27T09:34:25;97193.69;;;25.05;26.67
72409;BME280;60402;48.082;11.628;2024-01-27T09:37:10;97183.44;;;25.39;26.68
72409;BME280;60402;48.082;11.628;2024-01-27T09:39:56;97199.25;;;26.14;26.38
72409;BME280;60402;48.082;11.628;2024-01-27T09:42:49;97192.72;;;24.25;28.46
72409;BME280;60402;48.082;11.628;2024-01-27T09:45:36;97180.03;;;24.90;27.98
72409;BME280;60402;48.082;11.628;2024-01-27T09:48:21;97201.31;;;25.72;27.24
72409;BME280;60402;48.082;11.628;2024-01-27T09:51:08;97213.84;;;26.25;26.26
72409;BME280;60402;48.082;11.628;2024-01-27T09:53:54;97216.91;;;23.88;29.63
72409;BME280;60402;48.082;11.628;2024-01-27T09:56:40;97214.41;;;22.63;31.44
72409;BME280;60402;48.082;11.628;2024-01-27T09:59:26;97190.03;;;20.33;33.13
72409;BME280;60402;48.082;11.628;2024-01-27T10:02:12;97190.03;;;17.69;36.32
72409;BME280;60402;48.082;11.628;2024-01-27T10:04:59;97228.16;;;17.62;37.40
72409;BME280;60402;48.082;11.628;2024-01-27T10:07:46;97212.00;;;16.18;39.62
72409;BME280;60402;48.082;11.628;2024-01-27T10:10:32;97196.44;;;15.40;40.88
72409;BME280;60402;48.082;11.628;2024-01-27T10:13:17;97224.91;;;14.04;44.52
72409;BME280;60402;48.082;11.628;2024-01-27T10:16:07;97232.88;;;13.00;48.06
72409;BME280;60402;48.082;11.628;2024-01-27T10:19:03;97217.56;;;12.27;50.42
72409;BME280;60402;48.082;11.628;2024-01-27T10:21:59;97221.91;;;11.62;53.38
72409;BME280;60402;48.082;11.628;2024-01-27T10:24:46;97210.28;;;10.85;55.83
72409;BME280;60402;48.082;11.628;2024-01-27T10:27:33;97096.28;;;9.56;57.12
72409;BME280;60402;48.082;11.628;2024-01-27T10:30:34;97071.66;;;9.46;57.83
72409;BME280;60402;48.082;11.628;2024-01-27T10:33:27;97206.88;;;9.90;58.17
72409;BME280;60402;48.082;11.628;2024-01-27T10:36:17;97170.84;;;9.59;58.29
72409;BME280;60402;48.082;11.628;2024-01-27T10:39:02;97214.72;;;9.38;61.15
72409;BME280;60402;48.082;11.628;2024-01-27T10:41:59;97204.63;;;8.75;63.35
72409;BME280;60402;48.082;11.628;2024-01-27T10:44:47;97187.88;;;8.08;63.15
72409;BME280;60402;48.082;11.628;2024-01-27T10:47:33;97186.66;;;7.68;67.58
72409;BME280;60402;48.082;11.628;2024-01-27T10:50:19;97186.03;;;7.85;69.25
72409;BME280;60402;48.082;11.628;2024-01-27T10:53:09;97181.69;;;7.95;67.99
72409;BME280;60402;48.082;11.628;2024-01-27T10:55:57;97174.78;;;7.52;70.86
72409;BME280;60402;48.082;11.628;2024-01-27T10:58:54;97167.53;;;7.17;73.48
72409;BME280;60402;48.082;11.628;2024-01-27T11:01:42;97186.41;;;7.16;73.78
72409;BME280;60402;48.082;11.628;2024-01-27T11:04:28;97176.56;;;6.77;73.13
72409;BME280;60402;48.082;11.628;2024-01-27T11:07:16;97148.13;;;6.78;73.83
72409;BME280;60402;48.082;11.628;2024-01-27T11:10:02;97146.94;;;6.79;75.78
72409;BME280;60402;48.082;11.628;2024-01-27T11:12:48;97150.38;;;6.43;77.19
72409;BME280;60402;48.082;11.628;2024-01-27T11:15:35;97170.97;;;6.77;74.95
72409;BME280;60402;48.082;11.628;2024-01-27T11:18:21;97131.16;;;6.71;74.71
72409;BME280;60402;48.082;11.628;2024-01-27T11:21:06;97128.84;;;6.50;74.61
72409;BME280;60402;48.082;11.628;2024-01-27T11:23:52;97153.66;;;6.48;77.26
72409;BME280;60402;48.082;11.628;2024-01-27T11:26:38;97154.22;;;6.84;73.15
72409;BME280;60402;48.082;11.628;2024-01-27T11:29:23;97120.75;;;6.45;76.27
72409;BME280;60402;48.082;11.628;2024-01-27T11:32:12;97153.63;;;6.71;74.60
72409;BME280;60402;48.082;11.628;2024-01-27T11:35:00;97113.81;;;6.39;75.94
72409;BME280;60402;48.082;11.628;2024-01-27T11:37:48;97146.81;;;6.46;75.49
72409;BME280;60402;48.082;11.628;2024-01-27T11:40:33;97117.06;;;6.41;74.56
72409;BME280;60402;48.082;11.628;2024-01-27T11:43:19;97142.44;;;6.48;75.60
72409;BME280;60402;48.082;11.628;2024-01-27T11:46:05;97153.13;;;6.39;75.45
72409;BME280;60402;48.082;11.628;2024-01-27T11:48:50;97144.03;;;6.49;75.18
72409;BME280;60402;48.082;11.628;2024-01-27T11:51:36;97139.53;;;6.41;75.95
72409;BME280;60402;48.082;11.628;2024-01-27T11:54:22;97152.63;;;6.33;74.90
72409;BME280;60402;48.082;11.628;2024-01-27T11:57:07;97143.09;;;6.38;73.95
72409;BME280;60402;48.082;11.628;2024-01-27T11:59:53;97118.63;;;6.12;75.20
72409;BME280;60402;48.082;11.628;2024-01-27T12:02:40;97132.81;;;6.23;74.37
72409;BME280;60402;48.082;11.628;2024-01-27T12:05:26;97142.09;;;6.27;74.29
72409;BME280;60402;48.082;11.628;2024-01-27T12:08:12;97134.50;;;6.27;72.98
72409;BME280;60402;48.082;11.628;2024-01-27T12:10:58;97139.94;;;6.17;73.59
72409;BME280;60402;48.082;11.628;2024-01-27T12:13:43;97116.47;;;6.05;73.58
72409;BME280;60402;48.082;11.628;2024-01-27T12:16:29;97134.19;;;6.09;69.27
72409;BME280;60402;48.082;11.628;2024-01-27T12:19:15;97099.97;;;6.00;69.22
72409;BME280;60402;48.082;11.628;2024-01-27T12:22:01;97119.44;;;6.16;70.64
72409;BME280;60402;48.082;11.628;2024-01-27T12:24:47;97112.88;;;6.05;70.69
72409;BME280;60402;48.082;11.628;2024-01-27T12:27:33;97110.78;;;6.02;72.16
72409;BME280;60402;48.082;11.628;2024-01-27T12:30:21;97080.47;;;5.88;69.72
72409;BME280;60402;48.082;11.628;2024-01-27T12:33:11;97045.44;;;5.78;70.49
72409;BME280;60402;48.082;11.628;2024-01-27T12:35:57;97088.28;;;6.21;69.25
72409;BME280;60402;48.082;11.628;2024-01-27T12:39:07;97115.16;;;6.22;70.82
72409;BME280;60402;48.082;11.628;2024-01-27T12:41:52;97109.31;;;6.34;71.23
72409;BME280;60402;48.082;11.628;2024-01-27T12:44:38;97077.75;;;6.14;70.63
72409;BME280;60402;48.082;11.628;2024-01-27T12:47:24;97055.31;;;5.92;71.70
72409;BME280;60402;48.082;11.628;2024-01-27T12:50:10;97093.06;;;6.21;69.87
72409;BME280;60402;48.082;11.628;2024-01-27T12:52:56;97092.66;;;6.19;72.06
72409;BME280;60402;48.082;11.628;2024-01-27T12:55:42;97111.22;;;6.27;68.69
72409;BME280;60402;48.082;11.628;2024-01-27T12:58:27;97071.97;;;6.04;69.42
72409;BME280;60402;48.082;11.628;2024-01-27T13:01:13;97029.88;;;6.04;68.10
72409;BME280;60402;48.082;11.628;2024-01-27T13:03:59;97042.31;;;6.06;68.93
72409;BME280;60402;48.082;11.628;2024-01-27T13:06:44;97084.59;;;6.17;67.91
72409;BME280;60402;48.082;11.628;2024-01-27T13:09:30;97086.66;;;6.20;69.44
72409;BME280;60402;48.082;11.628;2024-01-27T13:12:16;97106.63;;;6.42;68.88
72409;BME280;60402;48.082;11.628;2024-01-27T13:15:02;97078.44;;;6.34;67.85
72409;BME280;60402;48.082;11.628;2024-01-27T13:17:47;97029.81;;;5.77;68.77
72409;BME280;60402;48.082;11.628;2024-01-27T13:20:33;97075.31;;;5.90;68.53
72409;BME280;60402;48.082;11.628;2024-01-27T13:23:19;97088.91;;;6.11;67.81
72409;BME280;60402;48.082;11.628;2024-01-27T13:26:04;97094.25;;;6.20;69.35
72409;BME280;60402;48.082;11.628;2024-01-27T13:28:50;97103.03;;;6.41;66.33
72409;BME280;60402;48.082;11.628;2024-01-27T13:31:36;97091.38;;;6.16;67.08
72409;BME280;60402;48.082;11.628;2024-01-27T13:34:21;97085.13;;;6.00;65.31
72409;BME280;60402;48.082;11.628;2024-01-27T13:37:07;97086.47;;;5.86;65.48
72409;BME280;60402;48.082;11.628;2024-01-27T13:39:54;97104.34;;;6.24;65.27
72409;BME280;60402;48.082;11.628;2024-01-27T13:42:42;97083.25;;;6.34;65.44
72409;BME280;60402;48.082;11.628;2024-01-27T13:45:27;97095.34;;;6.38;64.60
72409;BME280;60402;48.082;11.628;2024-01-27T13:48:13;97085.75;;;6.12;66.13
72409;BME280;60402;48.082;11.628;2024-01-27T13:50:59;97073.72;;;6.12;64.21
72409;BME280;60402;48.082;11.628;2024-01-27T13:53:44;97096.94;;;6.35;64.63
72409;BME280;60402;48.082;11.628;2024-01-27T13:56:30;97085.53;;;6.02;65.33
72409;BME280;60402;48.082;11.628;2024-01-27T13:59:18;97071.56;;;6.05;66.62
72409;BME280;60402;48.082;11.628;2024-01-27T14:02:04;97093.03;;;6.17;65.25
72409;BME280;60402;48.082;11.628;2024-01-27T14:04:50;97049.25;;;5.89;64.42
72409;BME280;60402;48.082;11.628;2024-01-27T14:07:36;97072.78;;;6.04;66.71
72409;BME280;60402;48.082;11.628;2024-01-27T14:10:21;97083.25;;;6.34;63.72
72409;BME280;60402;48.082;11.628;2024-01-27T14:13:07;97070.34;;;6.03;64.03
72409;BME280;60402;48.082;11.628;2024-01-27T14:15:54;97073.81;;;6.19;64.53
72409;BME280;60402;48.082;11.628;2024-01-27T14:18:40;97082.22;;;6.19;63.95
72409;BME280;60402;48.082;11.628;2024-01-27T14:21:27;97085.94;;;6.00;63.54
72409;BME280;60402;48.082;11.628;2024-01-27T14:24:14;97097.56;;;6.25;62.97
72409;BME280;60402;48.082;11.628;2024-01-27T14:27:00;97071.81;;;5.74;62.62
72409;BME280;60402;48.082;11.628;2024-01-27T14:29:46;97060.94;;;5.92;62.98